createdAt,value
2022-08-08T00:01:10.313Z,62
2022-08-08T00:06:55.876Z,72
2022-08-08T00:12:36.328Z,68
2022-08-08T00:18:18.875Z,80
2022-08-08T00:24:04.211Z,82
2022-08-08T00:29:47.803Z,60
2022-08-08T00:35:28.931Z,76
2022-08-08T00:41:16.472Z,78
2022-08-08T00:46:59.304Z,62
2022-08-08T00:52:52.122Z,58
2022-08-08T00:58:35.162Z,76
2022-08-08T01:04:16.084Z,106
2022-08-08T01:09:57.008Z,70
2022-08-08T01:15:55.190Z,92
2022-08-08T01:22:37.838Z,94
2022-08-08T01:39:57.729Z,100
2022-08-08T01:45:38.416Z,96
2022-08-08T02:01:17.566Z,92
2022-08-08T02:06:59.537Z,100
2022-08-08T02:12:40.384Z,92
2022-08-08T02:18:20.583Z,74
2022-08-08T02:24:01.204Z,90
2022-08-08T02:29:53.497Z,104
2022-08-08T02:36:16.896Z,94
2022-08-08T02:42:11.448Z,104
2022-08-08T02:47:56.436Z,94
2022-08-08T02:53:37.872Z,98
2022-08-08T03:00:36.836Z,90
2022-08-08T03:06:36.133Z,90
2022-08-08T03:16:01.968Z,98
2022-08-08T03:34:04.525Z,98
2022-08-08T03:40:04.894Z,100
2022-08-08T03:46:10.112Z,80
2022-08-08T03:56:55.771Z,14
2022-08-08T04:02:55.146Z,100
2022-08-08T04:14:37.447Z,94
2022-08-08T04:25:20.935Z,90
2022-08-08T04:32:01.118Z,90
2022-08-08T04:38:00.341Z,94
2022-08-08T04:48:43.040Z,88
2022-08-08T04:54:50.846Z,106
2022-08-08T05:00:35.838Z,100
2022-08-08T05:06:30.114Z,82
2022-08-08T05:12:30.115Z,102
2022-08-08T05:18:13.495Z,106
2022-08-08T05:24:11.167Z,90
2022-08-08T05:29:56.759Z,92
2022-08-08T05:35:55.096Z,94
2022-08-08T05:41:56.533Z,92
2022-08-08T05:48:10.268Z,96
2022-08-08T05:55:10.155Z,94
2022-08-08T06:06:50.667Z,92
2022-08-08T06:12:33.415Z,104
2022-08-08T06:18:26.001Z,100
2022-08-08T06:24:36.982Z,120
2022-08-08T06:30:30.334Z,80
2022-08-08T06:36:11.335Z,78
2022-08-08T06:41:51.457Z,88
2022-08-08T06:48:06.558Z,74
2022-08-08T06:54:01.206Z,72
2022-08-08T07:00:33.960Z,100
2022-08-08T07:06:17.712Z,92
2022-08-08T07:11:57.557Z,94
2022-08-08T07:18:42.694Z,98
2022-08-08T07:30:27.205Z,74
2022-08-08T07:36:11.699Z,94
2022-08-08T07:42:13.059Z,96
2022-08-08T07:47:54.379Z,24
2022-08-08T07:54:04.205Z,18
2022-08-08T07:59:49.504Z,24
2022-08-08T08:05:35.431Z,20
2022-08-08T08:11:52.688Z,24
2022-08-08T08:17:58.561Z,32
2022-08-08T08:24:03.341Z,14
2022-08-08T08:29:43.304Z,26
2022-08-08T08:36:31.795Z,22
2022-08-08T09:00:20.017Z,2
2022-08-08T09:12:09.926Z,6
2022-08-08T09:29:27.073Z,22
2022-08-08T09:35:09.048Z,16
2022-08-08T09:41:00.602Z,2
2022-08-08T09:48:23.549Z,4
2022-08-08T09:54:44.669Z,0
2022-08-08T10:00:59.396Z,0
2022-08-08T10:06:54.248Z,0
2022-08-08T10:13:15.185Z,0
2022-08-08T10:18:57.169Z,4
2022-08-08T10:31:10.540Z,2
2022-08-08T10:42:37.699Z,0
2022-08-08T10:48:56.437Z,0
2022-08-08T10:59:45.303Z,0
2022-08-08T11:05:24.879Z,22
2022-08-08T11:12:15.175Z,0
2022-08-08T11:18:02.930Z,10
2022-08-08T11:23:42.979Z,12
2022-08-08T11:30:40.898Z,0
2022-08-08T11:36:32.118Z,0
2022-08-08T11:42:31.757Z,2
2022-08-08T11:48:28.176Z,0
2022-08-08T11:54:46.956Z,0
2022-08-08T12:16:51.861Z,0
2022-08-08T12:28:45.674Z,32
2022-08-08T12:34:37.149Z,10
2022-08-08T12:46:31.647Z,0
2022-08-08T12:52:42.470Z,0
2022-08-08T12:58:36.305Z,4
2022-08-08T13:06:14.718Z,6
2022-08-08T13:12:57.535Z,0
2022-08-08T13:19:21.832Z,0
2022-08-08T13:25:25.155Z,4
2022-08-08T13:31:09.895Z,0
2022-08-08T13:36:58.614Z,4
2022-08-08T13:42:44.540Z,2
2022-08-08T13:48:27.878Z,6
2022-08-08T13:54:19.308Z,4
2022-08-08T14:00:06.461Z,4
2022-08-08T14:06:02.539Z,2
2022-08-08T14:11:47.204Z,0
2022-08-08T14:18:57.926Z,2
2022-08-08T14:24:51.510Z,4
2022-08-08T14:30:36.199Z,2
2022-08-08T14:36:39.936Z,2
2022-08-08T14:42:29.146Z,2
2022-08-08T14:48:10.084Z,0
2022-08-08T14:53:58.742Z,4
2022-08-08T14:59:59.573Z,0
2022-08-08T15:06:00.634Z,4
2022-08-08T15:11:54.367Z,2
2022-08-08T15:22:45.190Z,5
2022-08-08T15:28:44.272Z,4
2022-08-08T15:46:06.226Z,24
2022-08-08T15:51:46.654Z,90
2022-08-08T15:57:40.307Z,86
2022-08-08T16:03:35.588Z,76
2022-08-08T16:13:53.946Z,86
2022-08-08T16:20:08.802Z,82
2022-08-08T16:26:35.974Z,90
2022-08-08T16:32:37.134Z,74
2022-08-08T16:38:32.370Z,94
2022-08-08T16:44:14.407Z,90
2022-08-08T16:50:16.828Z,84
2022-08-08T16:56:16.229Z,72
2022-08-08T17:01:59.799Z,82
2022-08-08T17:07:42.663Z,84
2022-08-08T17:14:02.398Z,84
2022-08-08T17:19:50.491Z,92
2022-08-08T17:25:54.968Z,94
2022-08-08T17:31:50.047Z,76
2022-08-08T17:37:37.769Z,86
2022-08-08T17:43:26.211Z,78
2022-08-08T17:49:10.341Z,86
2022-08-08T17:54:57.057Z,94
2022-08-08T18:00:57.700Z,144
2022-08-08T18:06:45.614Z,86
2022-08-08T18:13:19.447Z,94
2022-08-08T18:19:03.077Z,86
2022-08-08T18:24:50.407Z,86
2022-08-08T18:30:32.620Z,90
2022-08-08T18:36:26.269Z,90
2022-08-08T18:42:24.558Z,78
2022-08-08T18:48:21.774Z,82
2022-08-08T19:00:26.567Z,92
2022-08-08T19:06:09.340Z,82
2022-08-08T19:11:54.903Z,86
2022-08-08T19:19:16.691Z,70
2022-08-08T19:26:31.934Z,72
2022-08-08T19:32:29.189Z,68
2022-08-08T19:38:22.792Z,94
2022-08-08T19:44:54.355Z,84
2022-08-08T19:50:48.767Z,92
2022-08-08T19:56:50.657Z,76
2022-08-08T20:02:32.652Z,88
2022-08-08T20:14:54.770Z,74
2022-08-08T20:32:28.015Z,67
2022-08-08T20:38:10.721Z,84
2022-08-08T20:43:52.137Z,74
2022-08-08T20:50:04.634Z,80
2022-08-08T20:55:52.245Z,72
2022-08-08T21:02:25.522Z,78
2022-08-08T21:08:57.939Z,74
2022-08-08T21:14:39.964Z,84
2022-08-08T21:20:37.918Z,72
2022-08-08T21:26:28.115Z,76
2022-08-08T21:32:27.968Z,74
2022-08-08T21:38:18.773Z,66
2022-08-08T21:43:58.907Z,78
2022-08-08T21:49:42.763Z,80
2022-08-08T21:56:50.247Z,80
2022-08-08T22:02:35.525Z,82
2022-08-08T22:08:24.814Z,72
2022-08-08T22:14:12.134Z,80
2022-08-08T22:20:28.873Z,82
2022-08-08T22:26:32.878Z,82
2022-08-08T22:32:13.280Z,72
2022-08-08T22:37:56.798Z,82
2022-08-08T22:44:06.648Z,62
2022-08-08T22:50:01.850Z,104
2022-08-08T22:56:03.899Z,66
2022-08-08T23:02:13.659Z,94
2022-08-08T23:07:59.017Z,100
2022-08-08T23:14:02.376Z,90
2022-08-08T23:19:54.709Z,92
2022-08-08T23:31:42.098Z,102
2022-08-08T23:38:04.330Z,104
2022-08-08T23:43:57.296Z,94
2022-08-08T23:49:37.547Z,104
